createdAt,value
2023-01-05T00:01:38.215Z,8.80
2023-01-05T00:04:07.235Z,8.90
2023-01-05T00:06:37.636Z,9.00
2023-01-05T00:09:13.149Z,9.10
2023-01-05T00:11:59.352Z,9.00
2023-01-05T00:14:47.220Z,9.10
2023-01-05T00:17:41.032Z,9.00
2023-01-05T00:20:32.948Z,9.10
2023-01-05T00:23:02.884Z,9.10
2023-01-05T00:25:32.680Z,9.30
2023-01-05T00:28:01.443Z,9.30
2023-01-05T00:30:33.101Z,9.30
2023-01-05T00:33:02.369Z,9.20
2023-01-05T00:35:32.808Z,9.30
2023-01-05T00:38:04.091Z,9.30
2023-01-05T00:40:32.286Z,9.30
2023-01-05T00:43:00.431Z,9.50
2023-01-05T00:45:28.856Z,9.50
2023-01-05T00:47:56.999Z,9.50
2023-01-05T00:50:25.356Z,9.60
2023-01-05T00:52:53.473Z,9.60
2023-01-05T00:55:23.017Z,9.60
2023-01-05T00:57:51.141Z,9.70
2023-01-05T01:00:20.919Z,9.60
2023-01-05T01:02:51.846Z,9.60
2023-01-05T01:05:20.185Z,9.70
2023-01-05T01:07:50.701Z,9.70
2023-01-05T01:10:19.178Z,9.60
2023-01-05T01:12:50.888Z,9.50
2023-01-05T01:15:19.087Z,9.50
2023-01-05T01:17:49.277Z,9.70
2023-01-05T01:20:20.698Z,9.70
2023-01-05T01:22:49.222Z,9.80
2023-01-05T01:25:17.553Z,9.80
2023-01-05T01:27:45.670Z,9.70
2023-01-05T01:30:15.409Z,9.60
2023-01-05T01:32:43.546Z,9.70
2023-01-05T01:35:11.766Z,9.60
2023-01-05T01:37:39.889Z,9.60
2023-01-05T01:40:09.332Z,9.60
2023-01-05T01:42:37.499Z,9.60
2023-01-05T01:45:19.592Z,9.60
2023-01-05T01:47:52.370Z,9.60
2023-01-05T01:50:21.392Z,9.50
2023-01-05T01:52:52.348Z,9.60
2023-01-05T01:55:21.801Z,9.60
2023-01-05T01:57:51.511Z,9.50
2023-01-05T02:00:23.814Z,9.50
2023-01-05T02:02:55.663Z,9.60
2023-01-05T02:05:29.298Z,9.60
2023-01-05T02:07:57.586Z,9.70
2023-01-05T02:10:37.701Z,9.70
2023-01-05T02:13:19.015Z,9.70
2023-01-05T02:15:53.943Z,9.70
2023-01-05T02:18:37.182Z,9.80
2023-01-05T02:21:19.948Z,9.70
2023-01-05T02:24:19.615Z,9.80
2023-01-05T02:27:31.117Z,9.80
2023-01-05T02:30:45.148Z,9.80
2023-01-05T02:33:27.263Z,9.80
2023-01-05T02:36:01.960Z,9.70
2023-01-05T02:38:36.249Z,9.60
2023-01-05T02:41:12.494Z,9.70
2023-01-05T02:43:40.709Z,9.60
2023-01-05T02:46:08.827Z,9.60
2023-01-05T02:48:39.646Z,9.60
2023-01-05T02:51:13.726Z,9.60
2023-01-05T02:53:47.019Z,9.60
2023-01-05T02:56:16.937Z,9.60
2023-01-05T02:58:48.645Z,9.70
2023-01-05T03:01:21.794Z,9.70
2023-01-05T03:03:58.853Z,9.80
2023-01-05T03:06:34.115Z,9.80
2023-01-05T03:09:05.949Z,9.70
2023-01-05T03:11:56.988Z,9.80
2023-01-05T03:14:30.743Z,9.70
2023-01-05T03:17:02.368Z,9.70
2023-01-05T03:19:39.815Z,9.70
2023-01-05T03:22:33.577Z,9.60
2023-01-05T03:25:20.872Z,9.70
2023-01-05T03:28:08.027Z,9.70
2023-01-05T03:30:59.575Z,9.70
2023-01-05T03:33:59.630Z,9.70
2023-01-05T03:36:34.279Z,9.70
2023-01-05T03:39:04.746Z,9.70
2023-01-05T03:41:36.801Z,9.80
2023-01-05T03:44:05.818Z,9.80
2023-01-05T03:46:37.582Z,9.80
2023-01-05T03:49:05.851Z,9.80
2023-01-05T03:51:41.427Z,9.80
2023-01-05T03:54:11.127Z,9.80
2023-01-05T03:56:41.082Z,9.80
2023-01-05T03:59:09.230Z,9.80
2023-01-05T04:01:40.100Z,9.80
2023-01-05T04:04:12.040Z,9.80
2023-01-05T04:06:41.688Z,9.80
2023-01-05T04:09:11.687Z,9.80
2023-01-05T04:11:41.940Z,9.80
2023-01-05T04:14:10.558Z,9.70
2023-01-05T04:16:39.578Z,9.70
2023-01-05T04:19:18.808Z,9.80
2023-01-05T04:21:48.465Z,9.80
2023-01-05T04:24:17.392Z,9.80
2023-01-05T04:26:46.947Z,9.70
2023-01-05T04:29:15.218Z,9.80
2023-01-05T04:31:46.757Z,9.70
2023-01-05T04:34:15.102Z,9.60
2023-01-05T04:36:47.841Z,9.50
2023-01-05T04:39:21.463Z,9.50
2023-01-05T04:41:52.247Z,9.40
2023-01-05T04:44:22.340Z,9.40
2023-01-05T04:46:51.561Z,9.40
2023-01-05T04:49:20.812Z,9.30
2023-01-05T04:51:51.753Z,9.40
2023-01-05T04:54:24.170Z,9.40
2023-01-05T04:56:52.963Z,9.50
2023-01-05T04:59:21.380Z,9.60
2023-01-05T05:01:50.409Z,9.50
2023-01-05T05:04:18.593Z,9.40
2023-01-05T05:06:50.319Z,9.40
2023-01-05T05:09:20.404Z,9.40
2023-01-05T05:11:51.408Z,9.40
2023-01-05T05:14:23.348Z,9.30
2023-01-05T05:16:52.131Z,9.30
2023-01-05T05:19:20.218Z,9.30
2023-01-05T05:21:49.620Z,9.30
2023-01-05T05:24:17.746Z,9.20
2023-01-05T05:26:47.384Z,9.30
2023-01-05T05:29:16.967Z,9.20
2023-01-05T05:31:45.269Z,9.10
2023-01-05T05:34:13.453Z,9.10
2023-01-05T05:36:41.723Z,9.10
2023-01-05T05:39:12.380Z,9.10
2023-01-05T05:41:40.535Z,9.10
2023-01-05T05:44:09.153Z,9.10
2023-01-05T05:46:38.799Z,9.10
2023-01-05T05:49:08.689Z,9.00
2023-01-05T05:51:36.919Z,9.00
2023-01-05T05:54:05.236Z,9.00
2023-01-05T05:56:33.340Z,9.00
2023-01-05T05:59:02.011Z,9.00
2023-01-05T06:01:30.336Z,9.00
2023-01-05T06:04:01.974Z,9.00
2023-01-05T06:06:30.054Z,9.00
2023-01-05T06:08:58.197Z,9.00
2023-01-05T06:11:26.285Z,9.10
2023-01-05T06:13:54.383Z,9.10
2023-01-05T06:16:22.611Z,9.00
2023-01-05T06:18:50.864Z,8.90
2023-01-05T06:21:24.035Z,8.80
2023-01-05T06:23:52.214Z,8.60
2023-01-05T06:26:20.818Z,8.50
2023-01-05T06:28:48.900Z,8.40
2023-01-05T06:31:17.031Z,8.40
2023-01-05T06:33:45.183Z,8.30
2023-01-05T06:36:13.310Z,8.30
2023-01-05T06:38:42.929Z,8.20
2023-01-05T06:41:10.959Z,8.20
2023-01-05T06:43:39.132Z,8.10
2023-01-05T06:46:07.476Z,8.20
2023-01-05T06:48:35.607Z,8.30
2023-01-05T06:51:03.690Z,8.30
2023-01-05T06:53:31.746Z,8.40
2023-01-05T06:56:01.244Z,8.40
2023-01-05T06:58:29.326Z,8.40
2023-01-05T07:00:57.544Z,8.40
2023-01-05T07:03:25.995Z,8.40
2023-01-05T07:05:56.155Z,8.50
2023-01-05T07:08:24.289Z,8.50
2023-01-05T07:10:52.488Z,8.50
2023-01-05T07:13:22.096Z,8.60
2023-01-05T07:15:50.175Z,8.60
2023-01-05T07:18:18.276Z,8.60
2023-01-05T07:20:46.429Z,8.70
2023-01-05T07:23:14.604Z,8.70
2023-01-05T07:25:42.933Z,8.70
2023-01-05T07:28:11.009Z,8.70
2023-01-05T07:30:40.515Z,8.70
2023-01-05T07:33:10.968Z,8.70
2023-01-05T07:35:39.043Z,8.70
2023-01-05T07:38:07.385Z,8.80
2023-01-05T07:40:40.207Z,8.70
2023-01-05T07:43:09.516Z,8.70
2023-01-05T07:45:37.752Z,8.60
2023-01-05T07:48:08.093Z,8.60
2023-01-05T07:50:36.224Z,8.60
2023-01-05T07:53:04.273Z,8.70
2023-01-05T07:55:32.563Z,8.50
2023-01-05T07:58:00.694Z,8.50
2023-01-05T08:00:29.761Z,8.50
2023-01-05T08:02:58.078Z,8.50
2023-01-05T08:05:30.186Z,8.50
2023-01-05T08:07:58.326Z,8.50
2023-01-05T08:10:32.081Z,8.50
2023-01-05T08:13:21.530Z,8.50
2023-01-05T08:15:51.480Z,8.60
2023-01-05T08:18:20.346Z,8.60
2023-01-05T08:20:56.261Z,8.60
2023-01-05T08:23:26.568Z,8.60
2023-01-05T08:25:56.154Z,8.60
2023-01-05T08:28:28.443Z,8.60
2023-01-05T08:31:05.941Z,8.60
2023-01-05T08:33:34.197Z,8.60
2023-01-05T08:36:09.156Z,8.60
2023-01-05T08:38:37.353Z,8.60
2023-01-05T08:41:06.065Z,8.70
2023-01-05T08:43:34.144Z,8.60
2023-01-05T08:46:05.308Z,8.60
2023-01-05T08:48:33.504Z,8.70
2023-01-05T08:51:06.284Z,8.70
2023-01-05T08:53:37.056Z,8.80
2023-01-05T08:56:05.483Z,8.70
2023-01-05T08:58:33.600Z,8.70
2023-01-05T09:01:01.862Z,8.70
2023-01-05T09:03:30.204Z,8.70
2023-01-05T09:06:02.462Z,8.60
2023-01-05T09:08:32.532Z,8.70
2023-01-05T09:11:09.095Z,8.70
2023-01-05T09:13:39.214Z,8.70
2023-01-05T09:16:12.487Z,8.60
2023-01-05T09:18:41.899Z,8.60
2023-01-05T09:21:10.885Z,8.60
2023-01-05T09:23:41.049Z,8.70
2023-01-05T09:26:11.452Z,8.80
2023-01-05T09:28:40.903Z,8.70
2023-01-05T09:31:11.685Z,8.70
2023-01-05T09:33:40.087Z,8.80
2023-01-05T09:36:09.656Z,8.80
2023-01-05T09:38:42.096Z,8.80
2023-01-05T09:41:21.192Z,8.80
2023-01-05T09:43:51.676Z,8.70
2023-01-05T09:46:24.452Z,8.70
2023-01-05T09:48:54.178Z,8.90
2023-01-05T09:51:22.381Z,9.00
2023-01-05T09:53:50.613Z,9.20
2023-01-05T09:57:07.526Z,9.20
2023-01-05T09:59:25.255Z,9.30
2023-01-05T10:01:55.489Z,9.30
2023-01-05T10:04:30.590Z,9.30
2023-01-05T10:07:03.828Z,9.40
2023-01-05T10:09:34.685Z,9.40
2023-01-05T10:12:33.599Z,9.40
2023-01-05T10:15:06.380Z,9.30
2023-01-05T10:17:41.813Z,9.20
2023-01-05T10:20:19.133Z,9.20
2023-01-05T10:22:55.209Z,9.30
2023-01-05T10:25:30.856Z,9.30
2023-01-05T10:28:09.429Z,9.30
2023-01-05T10:30:49.035Z,9.40
2023-01-05T10:33:39.549Z,9.40
2023-01-05T10:36:48.797Z,9.50
2023-01-05T10:39:19.773Z,9.40
2023-01-05T10:41:56.071Z,9.40
2023-01-05T10:44:52.726Z,9.30
2023-01-05T10:47:26.122Z,9.30
2023-01-05T10:49:54.935Z,9.40
2023-01-05T10:52:25.559Z,9.40
2023-01-05T10:55:01.611Z,9.40
2023-01-05T10:57:39.824Z,9.40
2023-01-05T11:00:18.885Z,9.40
2023-01-05T11:02:52.413Z,9.50
2023-01-05T11:05:28.543Z,9.60
2023-01-05T11:07:59.968Z,9.60
2023-01-05T11:10:32.169Z,9.60
2023-01-05T11:13:05.469Z,9.50
2023-01-05T11:15:45.007Z,9.50
2023-01-05T11:18:27.289Z,9.50
2023-01-05T11:21:10.464Z,9.50
2023-01-05T11:23:43.311Z,9.50
2023-01-05T11:26:29.620Z,9.50
2023-01-05T11:29:13.403Z,9.40
2023-01-05T11:31:47.995Z,9.40
2023-01-05T11:34:35.555Z,9.40
2023-01-05T11:37:08.318Z,9.40
2023-01-05T11:39:40.988Z,9.30
2023-01-05T11:42:25.624Z,9.40
2023-01-05T11:44:59.683Z,9.40
2023-01-05T11:47:35.393Z,9.40
2023-01-05T11:50:24.826Z,9.50
2023-01-05T11:52:55.050Z,9.50
2023-01-05T11:55:31.224Z,9.60
2023-01-05T11:58:17.334Z,9.60
2023-01-05T12:01:25.354Z,9.40
2023-01-05T12:04:08.446Z,9.40
2023-01-05T12:07:07.362Z,9.40
2023-01-05T12:09:38.110Z,9.40
2023-01-05T12:12:27.534Z,9.50
2023-01-05T12:15:43.316Z,9.50
2023-01-05T12:18:30.516Z,9.60
2023-01-05T12:21:06.922Z,9.70
2023-01-05T12:24:08.879Z,9.60
2023-01-05T12:26:44.873Z,9.70
2023-01-05T12:36:13.218Z,9.80
2023-01-05T12:38:51.204Z,9.80
2023-01-05T12:41:46.174Z,9.70
2023-01-05T12:44:37.871Z,9.60
2023-01-05T12:47:23.134Z,9.60
2023-01-05T12:49:56.090Z,9.60
2023-01-05T12:52:32.836Z,9.50
2023-01-05T12:55:06.473Z,9.50
2023-01-05T12:57:38.028Z,9.60
2023-01-05T13:00:11.973Z,9.50
2023-01-05T13:02:44.387Z,9.50
2023-01-05T13:05:20.989Z,9.50
2023-01-05T13:07:55.714Z,9.50
2023-01-05T13:10:29.369Z,9.40
2023-01-05T13:13:02.189Z,9.50
2023-01-05T13:15:35.262Z,9.50
2023-01-05T13:18:07.925Z,9.50
2023-01-05T13:20:41.700Z,9.50
2023-01-05T13:23:18.811Z,9.50
2023-01-05T13:25:53.975Z,9.50
2023-01-05T13:28:25.245Z,9.50
2023-01-05T13:31:13.268Z,9.50
2023-01-05T13:34:03.815Z,9.40
2023-01-05T13:36:48.032Z,9.30
2023-01-05T13:39:34.813Z,9.20
2023-01-05T13:42:18.378Z,9.20
2023-01-05T13:45:10.083Z,9.10
2023-01-05T13:48:12.579Z,9.10
2023-01-05T13:51:07.396Z,9.00
2023-01-05T13:53:39.653Z,8.90
2023-01-05T13:56:16.048Z,9.00
2023-01-05T13:58:47.052Z,8.90
2023-01-05T14:01:17.433Z,8.80
2023-01-05T14:03:52.393Z,8.70
2023-01-05T14:06:25.208Z,8.60
2023-01-05T14:08:59.595Z,8.50
2023-01-05T14:11:29.878Z,8.40
2023-01-05T14:14:00.095Z,8.40
2023-01-05T14:16:49.011Z,8.30
2023-01-05T14:19:22.581Z,8.30
2023-01-05T14:22:18.972Z,8.20
2023-01-05T14:24:48.628Z,8.10
2023-01-05T14:27:19.231Z,8.10
2023-01-05T14:30:06.241Z,8.10
2023-01-05T14:32:36.745Z,8.00
2023-01-05T14:35:18.602Z,8.00
2023-01-05T14:37:54.491Z,7.90
2023-01-05T14:40:31.898Z,7.80
2023-01-05T14:43:03.663Z,7.80
2023-01-05T14:45:33.601Z,7.80
2023-01-05T14:48:07.346Z,7.80
2023-01-05T14:50:38.603Z,7.80
2023-01-05T14:53:13.999Z,7.70
2023-01-05T14:56:07.765Z,7.80
2023-01-05T14:58:56.527Z,7.80
2023-01-05T15:01:29.308Z,7.80
2023-01-05T15:03:59.284Z,7.70
2023-01-05T15:06:37.125Z,7.70
2023-01-05T15:09:21.875Z,7.70
2023-01-05T15:12:09.842Z,7.60
2023-01-05T15:15:00.605Z,7.50
2023-01-05T15:17:52.066Z,7.50
2023-01-05T15:20:48.595Z,7.50
2023-01-05T15:23:32.095Z,7.40
2023-01-05T15:26:22.369Z,7.40
2023-01-05T15:29:27.276Z,7.40
2023-01-05T15:31:59.933Z,7.40
2023-01-05T15:34:35.018Z,7.40
2023-01-05T15:37:12.121Z,7.40
2023-01-05T15:39:47.599Z,7.30
2023-01-05T15:42:19.555Z,7.30
2023-01-05T15:44:51.140Z,7.40
2023-01-05T15:47:23.765Z,7.40
2023-01-05T15:49:56.429Z,7.40
2023-01-05T15:52:30.990Z,7.30
2023-01-05T15:55:01.776Z,7.30
2023-01-05T15:57:29.926Z,7.30
2023-01-05T15:59:58.433Z,7.20
2023-01-05T16:02:30.635Z,7.20
2023-01-05T16:05:13.202Z,7.20
2023-01-05T16:07:47.937Z,7.20
2023-01-05T16:10:27.992Z,7.20
2023-01-05T16:13:02.506Z,7.10
2023-01-05T16:15:35.073Z,7.00
2023-01-05T16:18:07.349Z,7.00
2023-01-05T16:20:41.803Z,6.90
2023-01-05T16:23:17.004Z,6.90
2023-01-05T16:25:50.601Z,6.80
2023-01-05T16:28:20.490Z,6.80
2023-01-05T16:30:52.654Z,6.90
2023-01-05T16:33:34.777Z,6.90
2023-01-05T16:36:18.756Z,6.80
2023-01-05T16:38:47.295Z,6.80
2023-01-05T16:41:21.530Z,6.80
2023-01-05T16:43:57.704Z,6.70
2023-01-05T16:46:38.737Z,6.70
2023-01-05T16:49:27.325Z,6.80
2023-01-05T16:51:56.840Z,6.80
2023-01-05T16:54:34.959Z,6.80
2023-01-05T16:57:05.426Z,6.80
2023-01-05T16:59:45.424Z,6.90
2023-01-05T17:02:47.727Z,6.80
2023-01-05T17:05:20.333Z,6.80
2023-01-05T17:07:50.757Z,6.80
2023-01-05T17:10:22.723Z,6.80
2023-01-05T17:13:00.479Z,6.80
2023-01-05T17:15:32.178Z,6.80
2023-01-05T17:18:00.591Z,6.80
2023-01-05T17:20:33.071Z,6.80
2023-01-05T17:23:01.390Z,6.80
2023-01-05T17:25:33.247Z,6.70
2023-01-05T17:28:01.420Z,6.70
2023-01-05T17:30:29.533Z,6.70
2023-01-05T17:32:57.655Z,6.70
2023-01-05T17:35:25.888Z,6.70
2023-01-05T17:37:55.422Z,6.60
2023-01-05T17:40:23.712Z,6.60
2023-01-05T17:42:52.097Z,6.60
2023-01-05T17:45:23.143Z,6.70
2023-01-05T17:47:52.361Z,6.70
2023-01-05T17:50:23.578Z,6.70
2023-01-05T17:52:51.719Z,6.70
2023-01-05T17:55:22.151Z,6.70
2023-01-05T17:57:50.577Z,6.70
2023-01-05T18:00:23.906Z,6.60
2023-01-05T18:02:53.290Z,6.50
2023-01-05T18:05:22.427Z,6.50
2023-01-05T18:07:50.724Z,6.50
2023-01-05T18:10:25.945Z,6.60
2023-01-05T18:12:56.685Z,6.60
2023-01-05T18:17:57.692Z,6.60
2023-01-05T18:20:27.150Z,6.50
2023-01-05T18:22:55.686Z,6.60
2023-01-05T18:25:25.536Z,6.60
2023-01-05T18:27:53.610Z,6.50
2023-01-05T18:30:21.876Z,6.50
2023-01-05T18:32:50.007Z,6.50
2023-01-05T18:35:18.400Z,6.50
2023-01-05T18:37:46.701Z,6.50
2023-01-05T18:40:15.536Z,6.50
2023-01-05T18:42:45.087Z,6.40
2023-01-05T18:45:19.832Z,6.50
2023-01-05T18:47:58.117Z,6.50
2023-01-05T18:50:27.043Z,6.40
2023-01-05T18:52:55.219Z,6.30
2023-01-05T18:55:23.302Z,6.30
2023-01-05T18:57:52.871Z,6.30
2023-01-05T19:00:21.236Z,6.30
2023-01-05T19:02:49.371Z,6.30
2023-01-05T19:05:17.981Z,6.20
2023-01-05T19:07:46.225Z,6.10
2023-01-05T19:10:14.720Z,6.20
2023-01-05T19:12:42.811Z,6.10
2023-01-05T19:15:12.959Z,6.10
2023-01-05T19:17:42.136Z,6.10
2023-01-05T19:20:11.090Z,6.20
2023-01-05T19:22:40.194Z,6.10
2023-01-05T19:25:09.013Z,6.10
2023-01-05T19:27:37.170Z,6.10
2023-01-05T19:30:05.890Z,6.10
2023-01-05T19:32:36.801Z,6.10
2023-01-05T19:35:06.160Z,6.10
2023-01-05T19:37:35.305Z,6.10
2023-01-05T19:40:03.882Z,6.10
2023-01-05T19:42:33.568Z,6.20
2023-01-05T19:45:03.577Z,6.20
2023-01-05T19:47:32.667Z,6.20
2023-01-05T19:50:02.358Z,6.20
2023-01-05T19:52:32.782Z,6.20
2023-01-05T19:55:01.199Z,6.10
2023-01-05T19:57:30.258Z,6.10
2023-01-05T20:00:01.305Z,6.10
2023-01-05T20:02:42.068Z,6.00
2023-01-05T20:05:14.143Z,6.00
2023-01-05T20:07:43.433Z,6.00
2023-01-05T20:10:11.969Z,6.00
2023-01-05T20:12:40.072Z,5.90
2023-01-05T20:15:08.981Z,5.90
2023-01-05T20:17:37.104Z,5.80
2023-01-05T20:20:05.574Z,5.70
2023-01-05T20:22:35.100Z,5.60
2023-01-05T20:25:03.209Z,5.40
2023-01-05T20:27:31.345Z,5.40
2023-01-05T20:29:59.579Z,5.40
2023-01-05T20:32:30.150Z,5.30
2023-01-05T20:35:00.677Z,5.20
2023-01-05T20:37:29.976Z,5.20
2023-01-05T20:40:00.982Z,5.20
2023-01-05T20:42:30.239Z,5.20
2023-01-05T20:44:58.308Z,5.10
2023-01-05T20:47:27.256Z,5.10
2023-01-05T20:49:56.583Z,5.20
2023-01-05T20:52:24.855Z,5.20
2023-01-05T20:54:55.321Z,5.20
2023-01-05T20:57:24.870Z,5.10
2023-01-05T20:59:53.191Z,5.10
2023-01-05T21:02:24.235Z,5.20
2023-01-05T21:04:53.565Z,5.10
2023-01-05T21:07:21.801Z,5.30
2023-01-05T21:09:51.570Z,5.30
2023-01-05T21:12:20.712Z,5.20
2023-01-05T21:14:50.232Z,5.10
2023-01-05T21:17:18.419Z,5.10
2023-01-05T21:19:46.491Z,5.00
2023-01-05T21:22:16.683Z,5.00
2023-01-05T21:24:45.331Z,5.10
2023-01-05T21:27:13.429Z,5.00
2023-01-05T21:29:41.544Z,5.00
2023-01-05T21:32:12.119Z,4.80
2023-01-05T21:34:42.227Z,4.70
2023-01-05T21:37:10.527Z,4.70
2023-01-05T21:39:38.827Z,4.70
2023-01-05T21:42:24.569Z,4.70
2023-01-05T21:44:53.201Z,4.70
2023-01-05T21:47:22.692Z,4.70
2023-01-05T21:49:50.714Z,4.90
2023-01-05T21:52:36.117Z,4.90
2023-01-05T21:55:22.595Z,4.90
2023-01-05T21:57:50.825Z,4.90
2023-01-05T22:00:18.886Z,4.90
2023-01-05T22:02:48.296Z,5.00
2023-01-05T22:05:16.526Z,5.00
2023-01-05T22:07:45.028Z,5.00
2023-01-05T22:10:13.392Z,5.00
2023-01-05T22:12:41.446Z,5.00
2023-01-05T22:15:11.075Z,5.00
2023-01-05T22:17:39.167Z,5.00
2023-01-05T22:20:09.928Z,5.00
2023-01-05T22:22:38.193Z,4.90
2023-01-05T22:25:06.986Z,4.90
2023-01-05T22:27:35.019Z,4.90
2023-01-05T22:30:03.075Z,4.90
2023-01-05T22:32:31.105Z,4.90
2023-01-05T22:34:59.448Z,4.80
2023-01-05T22:37:29.006Z,4.80
2023-01-05T22:39:57.932Z,4.80
2023-01-05T22:42:26.008Z,4.80
2023-01-05T22:44:54.068Z,4.80
2023-01-05T22:47:25.372Z,4.80
2023-01-05T22:49:53.448Z,4.80
2023-01-05T22:52:21.499Z,4.70
2023-01-05T22:54:50.937Z,4.60
2023-01-05T22:57:18.933Z,4.40
2023-01-05T22:59:47.010Z,4.50
2023-01-05T23:02:15.133Z,4.60
2023-01-05T23:04:43.258Z,4.30
2023-01-05T23:07:11.347Z,4.00
2023-01-05T23:09:39.421Z,3.70
2023-01-05T23:12:12.134Z,3.50
2023-01-05T23:14:40.895Z,3.30
2023-01-05T23:17:12.193Z,3.30
2023-01-05T23:19:40.455Z,3.20
2023-01-05T23:22:10.779Z,3.20
2023-01-05T23:24:39.553Z,3.10
2023-01-05T23:27:07.613Z,3.20
2023-01-05T23:29:37.452Z,3.10
2023-01-05T23:32:06.449Z,3.00
2023-01-05T23:34:34.488Z,3.00
2023-01-05T23:37:02.764Z,3.00
2023-01-05T23:39:30.834Z,3.00
2023-01-05T23:41:58.945Z,3.00
2023-01-05T23:44:29.558Z,3.00
2023-01-05T23:46:59.096Z,2.90
2023-01-05T23:49:28.538Z,3.00
2023-01-05T23:51:56.629Z,3.00
2023-01-05T23:54:24.692Z,3.10
2023-01-05T23:56:52.774Z,3.50
2023-01-05T23:59:21.037Z,3.60
